Time;durP1;ratioP1;P1;durP2;ratioP2;P2;SDS_P1;SDS_P2;PMS_P1;PMS_P2;Temp;Humidity;BMP_temperature;BMP_pressure;BME280_temperature;BME280_humidity;BME280_pressure;Samples;Min_cycle;Max_cycle;Signal;HPM_P1;HPM_P2
2021/12/17 00:01:08;;;;;;;;;61.50;48.25;;;;;9.42;65.97;103245.06;4962889;28;45387;-51
2021/12/17 00:03:48;;;;;;;;;61.00;48.00;;;;;9.43;65.89;103246.84;4945716;28;45333;-51
2021/12/17 00:08:52;;;;;;;;;57.00;45.00;;;;;9.41;65.80;103240.66;4962672;28;45177;-50
2021/12/17 00:11:20;;;;;;;;;55.25;46.75;;;;;9.40;66.14;103241.50;4962572;28;45264;-51
2021/12/17 00:13:46;;;;;;;;;61.25;48.50;;;;;9.39;65.94;103239.72;4962594;28;45326;-50
2021/12/17 00:16:17;;;;;;;;;55.25;44.25;;;;;9.38;66.02;103232.72;4962192;28;46358;-51
2021/12/17 00:49:20;;;;;;;;;53.50;41.50;;;;;9.25;66.05;103225.28;4900030;28;45998;-52
2021/12/17 00:54:20;;;;;;;;;53.00;42.00;;;;;9.27;65.88;103221.00;4944820;28;45331;-51
2021/12/17 00:56:48;;;;;;;;;56.25;43.25;;;;;9.26;65.93;103213.97;4962160;28;45322;-52
2021/12/17 00:59:13;;;;;;;;;57.00;45.25;;;;;9.26;66.08;103200.84;4961912;28;46304;-51
2021/12/17 01:01:39;;;;;;;;;60.00;45.50;;;;;9.26;66.00;103216.59;4961721;28;45414;-50
2021/12/17 01:04:04;;;;;;;;;57.00;48.25;;;;;9.24;65.89;103206.03;4962219;28;45232;-51
2021/12/17 01:06:29;;;;;;;;;55.00;45.25;;;;;9.23;66.00;103208.59;4961817;28;45267;-50
2021/12/17 01:08:55;;;;;;;;;54.75;44.00;;;;;9.24;66.04;103210.38;4944261;28;48376;-48
2021/12/17 01:11:22;;;;;;;;;61.25;48.25;;;;;9.23;65.93;103208.59;4961592;28;45410;-49
2021/12/17 01:13:48;;;;;;;;;55.75;45.75;;;;;9.23;65.93;103213.84;4944477;28;45450;-50
2021/12/17 01:16:14;;;;;;;;;54.25;42.50;;;;;9.22;65.94;103209.44;4961383;28;45375;-51
2021/12/17 01:19:05;;;;;;;;;57.00;45.50;;;;;9.20;66.01;103205.91;4961565;28;45287;-50
2021/12/17 01:24:06;;;;;;;;;55.75;44.25;;;;;9.21;66.01;103207.69;4961491;28;45293;-50
2021/12/17 01:38:44;;;;;;;;;60.25;47.25;;;;;9.15;66.03;103202.25;4961767;28;45144;-52
2021/12/17 01:43:02;;;;;;;;;57.00;46.00;;;;;9.15;66.03;103207.50;4961399;28;45229;-49
2021/12/17 01:45:32;;;;;;;;;59.50;45.75;;;;;9.16;66.00;103201.41;4961335;28;45184;-53
2021/12/17 01:48:01;;;;;;;;;59.25;45.25;;;;;9.15;66.10;103202.25;4961176;28;45277;-51
2021/12/17 01:56:17;;;;;;;;;58.00;45.50;;;;;9.08;66.21;103199.41;4961305;28;45799;-52
2021/12/17 02:01:30;;;;;;;;;60.75;46.75;;;;;9.08;66.18;103195.88;4960912;28;45205;-51
2021/12/17 02:03:56;;;;;;;;;58.00;46.00;;;;;9.08;66.01;103195.88;4960436;28;45308;-51
2021/12/17 02:06:23;;;;;;;;;57.00;44.50;;;;;9.07;66.39;103194.13;4961225;28;45329;-52
2021/12/17 02:08:49;;;;;;;;;56.25;44.00;;;;;9.07;66.11;103194.13;4960966;28;45441;-52
2021/12/17 02:19:59;;;;;;;;;57.75;45.00;;;;;9.02;66.33;103200.94;4882387;29;45415;-50
2021/12/17 02:23:11;;;;;;;;;56.50;44.50;;;;;9.02;66.09;103201.84;4866454;29;47384;-50
2021/12/17 02:28:45;;;;;;;;;56.25;44.25;;;;;9.00;66.43;103203.53;4889370;28;45358;-50
2021/12/17 02:33:39;;;;;;;;;53.00;42.25;;;;;8.98;66.15;103199.97;4960798;28;45649;-51
2021/12/17 02:36:05;;;;;;;;;52.25;44.25;;;;;8.99;66.16;103201.75;4959478;28;45422;-50
2021/12/17 02:38:37;;;;;;;;;54.50;42.75;;;;;9.00;66.20;103202.66;4960797;28;45249;-48
2021/12/17 02:46:37;;;;;;;;;57.25;43.00;;;;;8.94;65.97;103179.72;4960349;28;45377;-50
2021/12/17 02:49:03;;;;;;;;;54.75;43.50;;;;;8.93;66.13;103181.47;4960809;28;45310;-50
2021/12/17 02:51:28;;;;;;;;;57.00;43.75;;;;;8.92;66.11;103174.44;4960610;28;45367;-51
2021/12/17 02:53:54;;;;;;;;;54.00;40.25;;;;;8.92;66.08;103174.44;4960470;28;45210;-52
2021/12/17 02:56:21;;;;;;;;;50.25;39.00;;;;;8.92;66.33;103177.06;4960330;28;45305;-52
2021/12/17 02:58:47;;;;;;;;;42.25;36.25;;;;;8.92;66.34;103173.56;4960831;28;45297;-51
2021/12/17 03:01:14;;;;;;;;;46.75;39.00;;;;;8.90;66.17;103177.84;4960226;28;45623;-51
2021/12/17 03:03:41;;;;;;;;;51.25;41.50;;;;;8.86;66.10;103168.13;4960466;28;45759;-52
2021/12/17 03:06:07;;;;;;;;;50.00;40.75;;;;;8.86;66.29;103176.00;4960220;28;45270;-51
2021/12/17 03:08:32;;;;;;;;;53.00;39.50;;;;;8.88;66.36;103174.28;4960537;28;45332;-49
2021/12/17 03:10:59;;;;;;;;;44.00;39.25;;;;;8.88;66.40;103176.91;4960027;28;45330;-49
2021/12/17 03:13:25;;;;;;;;;50.00;40.25;;;;;8.88;66.33;103169.03;4960177;28;46217;-50
2021/12/17 03:18:48;;;;;;;;;43.25;35.75;;;;;8.87;66.33;103165.53;4963653;28;45926;-51
2021/12/17 03:23:47;;;;;;;;;47.50;38.25;;;;;8.84;66.17;103157.59;4963323;28;45250;-52
2021/12/17 03:26:18;;;;;;;;;49.25;39.00;;;;;8.87;66.21;103167.28;4963535;28;45220;-50
2021/12/17 03:28:46;;;;;;;;;50.00;38.50;;;;;8.86;66.19;103169.00;4946112;28;45272;-52
2021/12/17 03:31:13;;;;;;;;;43.50;38.25;;;;;8.88;66.07;103166.41;4946020;28;45498;-52
2021/12/17 03:33:42;;;;;;;;;51.75;43.00;;;;;8.86;66.22;103161.13;4963247;28;45410;-53
2021/12/17 03:36:11;;;;;;;;;49.50;42.25;;;;;8.87;66.39;103162.03;4963460;28;45255;-52
2021/12/17 03:38:37;;;;;;;;;52.25;41.25;;;;;8.87;66.28;103167.28;4963376;28;45302;-51
2021/12/17 03:41:16;;;;;;;;;47.75;39.75;;;;;8.87;66.33;103167.28;4963169;28;45229;-50
2021/12/17 03:43:41;;;;;;;;;51.00;40.75;;;;;8.85;66.34;103166.34;4963090;28;45309;-51
2021/12/17 03:46:07;;;;;;;;;48.25;39.25;;;;;8.85;66.13;103168.97;4926388;28;45355;-53
2021/12/17 03:48:36;;;;;;;;;54.50;42.00;;;;;8.87;66.37;103180.41;4945804;28;45338;-50
2021/12/17 03:51:02;;;;;;;;;53.00;42.25;;;;;8.85;66.06;103167.22;4945729;28;45439;-50
2021/12/17 03:53:28;;;;;;;;;44.25;36.50;;;;;8.86;66.33;103178.59;4945527;28;47043;-50
2021/12/17 03:55:53;;;;;;;;;51.75;39.25;;;;;8.86;66.34;103176.00;4962859;28;45153;-50
2021/12/17 03:58:19;;;;;;;;;45.75;37.00;;;;;8.84;66.10;103172.41;4963095;28;45446;-50
2021/12/17 04:00:45;;;;;;;;;47.00;39.00;;;;;8.84;66.22;103175.03;4962921;28;45378;-50
2021/12/17 04:03:10;;;;;;;;;47.00;38.50;;;;;8.80;66.12;103175.78;4962468;28;46386;-52
2021/12/17 04:05:36;;;;;;;;;47.75;39.75;;;;;8.82;66.18;103187.19;4962905;28;45316;-51
2021/12/17 04:08:01;;;;;;;;;43.00;37.00;;;;;8.82;65.97;103179.31;4962946;28;45247;-51
2021/12/17 04:10:29;;;;;;;;;46.75;37.50;;;;;8.81;66.08;103173.22;4962501;28;45577;-51
2021/12/17 04:13:00;;;;;;;;;50.75;40.75;;;;;8.81;66.29;103164.47;4962462;28;46340;-51
2021/12/17 04:15:34;;;;;;;;;48.50;39.25;;;;;8.81;66.37;103167.09;4962597;28;45390;-52
2021/12/17 04:18:00;;;;;;;;;48.00;36.50;;;;;8.81;66.31;103164.47;4962644;28;45331;-48
2021/12/17 04:20:26;;;;;;;;;47.50;37.25;;;;;8.81;66.30;103169.72;4962583;28;45318;-49
2021/12/17 04:22:52;;;;;;;;;49.50;38.75;;;;;8.81;66.38;103164.47;4962640;28;45905;-49
2021/12/17 04:25:17;;;;;;;;;52.50;39.25;;;;;8.80;66.41;103167.91;4962471;28;45339;-52
2021/12/17 04:27:43;;;;;;;;;49.75;39.00;;;;;8.82;66.52;103174.09;4962236;28;45397;-52
2021/12/17 04:30:09;;;;;;;;;44.25;38.00;;;;;8.84;66.37;103164.53;4962425;28;45312;-50
2021/12/17 04:32:34;;;;;;;;;47.75;39.25;;;;;8.85;66.36;103166.34;4962180;28;46780;-50
2021/12/17 04:35:00;;;;;;;;;48.00;39.00;;;;;8.86;66.59;103152.38;4962457;28;45299;-51
2021/12/17 04:37:25;;;;;;;;;40.25;34.75;;;;;8.87;66.43;103154.19;4962531;28;45229;-51
2021/12/17 04:39:51;;;;;;;;;46.25;37.25;;;;;8.86;66.68;103157.63;4962374;28;45181;-50
2021/12/17 04:42:36;;;;;;;;;43.75;37.25;;;;;8.89;66.38;103155.09;4962278;28;46177;-48
2021/12/17 04:45:03;;;;;;;;;47.50;37.25;;;;;8.92;66.43;103152.59;4962273;28;45374;-50
2021/12/17 04:58:25;;;;;;;;;39.00;33.00;;;;;9.03;66.68;103161.66;4962194;28;45289;-49
2021/12/17 05:00:50;;;;;;;;;41.00;32.75;;;;;9.09;66.63;103164.50;4961958;28;45469;-51
2021/12/17 05:03:15;;;;;;;;;43.25;35.25;;;;;9.11;66.82;103165.41;4961889;28;45276;-52
2021/12/17 05:05:41;;;;;;;;;33.50;29.25;;;;;9.15;66.65;103168.13;4961995;28;45223;-52
2021/12/17 05:08:12;;;;;;;;;42.75;34.50;;;;;9.19;66.81;103172.63;4962007;28;45418;-51
2021/12/17 05:18:42;;;;;;;;;36.00;33.00;;;;;9.31;66.74;103169.47;4961853;28;45312;-51
2021/12/17 05:21:09;;;;;;;;;46.25;36.25;;;;;9.33;66.65;103159.91;4961626;28;45359;-49
2021/12/17 05:23:40;;;;;;;;;45.25;35.50;;;;;9.38;66.75;103164.47;4961940;28;45264;-53
2021/12/17 05:26:12;;;;;;;;;40.25;34.75;;;;;9.40;66.86;103168.00;4961603;28;45355;-52
2021/12/17 05:28:38;;;;;;;;;40.25;33.00;;;;;9.41;66.71;103169.78;4961684;28;45237;-49
2021/12/17 05:31:04;;;;;;;;;35.50;33.25;;;;;9.47;66.80;103174.34;4961525;28;45244;-50
2021/12/17 05:33:30;;;;;;;;;46.50;38.00;;;;;9.51;66.70;103167.44;4961384;28;45360;-52
2021/12/17 05:35:56;;;;;;;;;50.00;38.00;;;;;9.52;66.71;103166.59;4961671;28;45319;-50
2021/12/17 05:38:24;;;;;;;;;38.50;34.50;;;;;9.54;66.68;103159.66;4960928;28;45254;-52
2021/12/17 05:40:50;;;;;;;;;38.00;35.00;;;;;9.57;66.75;103162.34;4943719;28;45441;-51
2021/12/17 05:43:16;;;;;;;;;45.00;36.00;;;;;9.60;66.75;103165.97;4961283;28;46041;-51
2021/12/17 05:48:20;;;;;;;;;40.50;33.75;;;;;9.66;66.73;103159.09;4961534;28;45410;-50
2021/12/17 05:50:48;;;;;;;;;38.50;31.75;;;;;9.69;66.94;103159.22;4961330;28;45311;-49
2021/12/17 05:53:13;;;;;;;;;42.75;34.00;;;;;9.70;66.69;103161.88;4961053;28;45364;-52
2021/12/17 05:55:39;;;;;;;;;37.25;33.00;;;;;9.73;66.80;103161.06;4943931;28;45307;-50
2021/12/17 05:58:06;;;;;;;;;38.25;33.00;;;;;9.75;66.90;103159.38;4961255;28;45398;-49
2021/12/17 06:00:32;;;;;;;;;39.00;33.00;;;;;9.78;66.84;103169.06;4961384;28;45318;-50
2021/12/17 06:02:59;;;;;;;;;41.75;36.25;;;;;9.79;66.99;103163.88;4960689;28;47379;-51
2021/12/17 06:05:26;;;;;;;;;39.00;34.50;;;;;9.82;66.72;103166.56;4961346;28;45375;-48
2021/12/17 06:07:52;;;;;;;;;40.25;35.50;;;;;9.85;66.78;103171.00;4961113;28;45370;-50
2021/12/17 06:10:17;;;;;;;;;34.00;30.50;;;;;9.84;66.89;103164.88;4960400;28;45502;-52
2021/12/17 06:12:43;;;;;;;;;41.50;35.50;;;;;9.88;66.99;103157.97;4943378;28;46916;-49
2021/12/17 06:15:14;;;;;;;;;37.00;34.00;;;;;9.89;66.76;103165.88;4943703;28;45410;-51
2021/12/17 06:17:40;;;;;;;;;41.25;35.75;;;;;9.91;66.99;103160.66;4960776;28;45289;-52
2021/12/17 06:20:07;;;;;;;;;38.25;35.25;;;;;9.94;67.03;103171.28;4960707;28;45438;-49
2021/12/17 06:22:32;;;;;;;;;33.00;31.75;;;;;9.96;66.86;103166.06;4960685;28;46091;-50
2021/12/17 06:24:58;;;;;;;;;45.25;36.00;;;;;9.98;66.89;103156.50;4960743;28;45399;-49
2021/12/17 06:27:23;;;;;;;;;41.50;35.25;;;;;9.98;66.86;103161.75;4960857;28;45410;-50
2021/12/17 06:29:49;;;;;;;;;45.25;37.00;;;;;10.01;66.81;103162.72;4960752;28;45328;-52
2021/12/17 06:32:16;;;;;;;;;44.50;34.75;;;;;10.03;66.77;103168.88;4960271;28;45280;-49
2021/12/17 06:34:42;;;;;;;;;39.50;34.50;;;;;10.04;66.89;103167.16;4956215;28;45350;-49
2021/12/17 06:37:08;;;;;;;;;40.25;35.25;;;;;10.04;67.05;103167.16;4955254;28;45237;-49
2021/12/17 06:39:34;;;;;;;;;36.75;33.25;;;;;10.06;67.03;103168.06;4939540;28;45549;-47
2021/12/17 06:42:00;;;;;;;;;40.75;35.25;;;;;10.08;66.83;103172.53;4950785;28;45392;-52
2021/12/17 06:44:26;;;;;;;;;34.25;32.25;;;;;10.10;67.10;103172.59;4942219;28;45442;-56
2021/12/17 06:47:05;;;;;;;;;43.50;36.25;;;;;10.12;66.98;103170.00;4959137;28;45481;-53
2021/12/17 07:10:49;;;;;;;;;38.25;34.75;;;;;10.29;66.86;103167.78;4952632;28;45384;-52
2021/12/17 07:24:14;;;;;;;;;36.25;30.50;;;;;10.36;66.95;103173.31;4962431;28;45333;-49
2021/12/17 07:39:40;;;;;;;;;42.50;34.75;;;;;10.46;67.11;103191.94;4962836;28;45348;-53
2021/12/17 07:42:06;;;;;;;;;34.00;32.25;;;;;10.46;66.91;103186.66;4962714;28;45439;-53
2021/12/17 07:44:32;;;;;;;;;46.00;35.75;;;;;10.48;66.75;103192.88;4960549;28;45374;-51
2021/12/17 07:46:57;;;;;;;;;38.75;30.75;;;;;10.47;67.16;103193.72;4962686;28;45331;-49
2021/12/17 07:49:23;;;;;;;;;35.50;30.25;;;;;10.50;67.04;103194.69;4962968;28;45378;-52
2021/12/17 07:51:48;;;;;;;;;35.25;31.75;;;;;10.50;67.16;103185.88;4962612;28;45332;-53
2021/12/17 07:54:14;;;;;;;;;36.25;32.50;;;;;10.49;66.98;103186.72;4962816;28;46179;-52
2021/12/17 07:56:39;;;;;;;;;32.25;30.25;;;;;10.52;67.18;103194.72;4962663;28;45256;-51
2021/12/17 07:59:06;;;;;;;;;40.25;32.50;;;;;10.52;66.99;103186.81;4945355;28;45347;-53
2021/12/17 08:01:31;;;;;;;;;35.50;33.00;;;;;10.53;66.97;103186.84;4961791;28;45531;-54
2021/12/17 08:03:57;;;;;;;;;39.25;33.50;;;;;10.54;67.16;103187.72;4962471;28;46325;-55
2021/12/17 08:06:22;;;;;;;;;36.50;30.00;;;;;10.54;66.92;103179.84;4944919;28;46000;-53
2021/12/17 08:08:47;;;;;;;;;36.00;32.00;;;;;10.55;67.23;103182.53;4962517;28;45375;-53
2021/12/17 08:11:13;;;;;;;;;37.75;33.00;;;;;10.58;67.17;103179.09;4959726;28;45683;-52
2021/12/17 08:13:40;;;;;;;;;36.75;30.75;;;;;10.60;67.04;103184.38;4962426;28;47022;-53
2021/12/17 08:29:50;;;;;;;;;34.50;29.50;;;;;10.65;67.20;103199.41;4962241;28;45485;-53
2021/12/17 08:32:16;;;;;;;;;38.25;34.75;;;;;10.65;67.16;103206.41;4960535;28;45786;-51
2021/12/17 08:34:41;;;;;;;;;30.50;29.00;;;;;10.63;67.00;103203.75;4962142;28;46704;-49
2021/12/17 08:37:07;;;;;;;;;31.25;29.00;;;;;10.65;67.52;103209.91;4957430;28;45453;-49
2021/12/17 08:39:33;;;;;;;;;30.50;27.50;;;;;10.67;67.31;103204.72;4960398;28;45434;-52
2021/12/17 08:42:00;;;;;;;;;35.00;30.25;;;;;10.67;67.22;103202.97;4962075;28;45312;-53
2021/12/17 08:44:26;;;;;;;;;35.75;32.50;;;;;10.68;67.43;103209.16;4957060;28;46328;-50
2021/12/17 08:46:51;;;;;;;;;35.25;31.00;;;;;10.69;67.27;103203.91;4939843;28;45330;-52
2021/12/17 08:49:16;;;;;;;;;39.00;34.25;;;;;10.69;67.35;103203.91;4962191;28;45304;-53
2021/12/17 08:51:43;;;;;;;;;35.50;32.00;;;;;10.71;67.43;103193.41;4939807;28;45240;-52
2021/12/17 08:54:09;;;;;;;;;36.00;32.00;;;;;10.72;67.33;103203.09;4961946;28;45309;-53
2021/12/17 08:56:40;;;;;;;;;41.00;34.25;;;;;10.71;67.50;103207.44;4961485;28;45279;-52
2021/12/17 08:59:07;;;;;;;;;38.75;32.00;;;;;10.71;67.26;103204.81;4962283;28;45361;-52
2021/12/17 09:01:33;;;;;;;;;39.75;33.75;;;;;10.73;67.42;103197.88;4961343;28;45410;-51
2021/12/17 09:03:58;;;;;;;;;43.75;35.00;;;;;10.73;67.31;103197.88;4944412;28;47266;-53
2021/12/17 09:06:26;;;;;;;;;36.50;32.00;;;;;10.77;67.52;103198.84;4961532;28;45317;-50
2021/12/17 09:08:56;;;;;;;;;35.00;32.00;;;;;10.79;67.42;103204.13;4961780;28;45422;-52
2021/12/17 09:11:23;;;;;;;;;41.00;33.25;;;;;10.80;67.43;103209.41;4958234;28;45303;-49
2021/12/17 09:13:50;;;;;;;;;38.25;31.75;;;;;10.81;67.43;103215.59;4961489;28;47183;-53
2021/12/17 09:16:15;;;;;;;;;33.25;29.75;;;;;10.83;67.48;103219.13;4961182;28;45439;-53
2021/12/17 09:18:41;;;;;;;;;36.75;32.00;;;;;10.84;67.47;103218.28;4961601;28;45415;-53
2021/12/17 09:21:07;;;;;;;;;37.25;32.25;;;;;10.84;67.66;103223.53;4939062;28;45653;-52
2021/12/17 09:23:32;;;;;;;;;41.00;34.25;;;;;10.87;67.53;103218.38;4939144;28;48790;-49
2021/12/17 09:25:58;;;;;;;;;43.00;32.25;;;;;10.86;67.66;103217.47;4961371;28;45360;-50
2021/12/17 09:28:23;;;;;;;;;37.00;32.75;;;;;10.90;67.57;103226.31;4961440;28;45394;-52
2021/12/17 09:30:49;;;;;;;;;37.00;32.75;;;;;10.91;67.48;103227.22;4958795;28;45346;-52
2021/12/17 09:33:14;;;;;;;;;42.00;34.00;;;;;10.94;67.44;103224.66;4961404;28;45246;-53
2021/12/17 09:35:39;;;;;;;;;34.50;31.25;;;;;10.96;67.52;103236.13;4960825;28;45272;-52
2021/12/17 09:38:05;;;;;;;;;42.50;35.75;;;;;10.91;67.18;103224.59;4959891;28;45446;-53
2021/12/17 09:40:30;;;;;;;;;32.00;30.50;;;;;10.98;67.47;103230.03;4960988;28;45441;-53
2021/12/17 09:42:56;;;;;;;;;35.25;31.75;;;;;11.00;67.47;103236.19;4960854;28;45353;-52
2021/12/17 09:45:21;;;;;;;;;43.75;34.25;;;;;11.01;67.62;103245.88;4956162;28;45213;-52
2021/12/17 09:47:47;;;;;;;;;43.00;36.00;;;;;11.03;67.52;103245.91;4961158;28;45417;-50
2021/12/17 09:50:15;;;;;;;;;46.00;36.00;;;;;11.04;67.50;103250.31;4960689;28;45518;-52
2021/12/17 09:52:41;;;;;;;;;40.50;34.50;;;;;11.04;67.51;103253.88;4961059;28;45472;-51
2021/12/17 09:55:07;;;;;;;;;49.25;38.50;;;;;11.06;67.50;103256.53;4960871;28;45493;-53
2021/12/17 09:57:36;;;;;;;;;45.00;36.00;;;;;11.08;67.54;103257.47;4960783;28;45487;-52
2021/12/17 10:00:19;;;;;;;;;33.75;30.50;;;;;11.06;67.62;103252.13;4960809;28;46085;-51
2021/12/17 10:02:45;;;;;;;;;48.25;34.75;;;;;11.07;67.60;103255.69;4960770;28;45422;-52
2021/12/17 10:05:14;;;;;;;;;39.25;33.75;;;;;11.09;67.95;103255.72;4960791;28;45543;-52
2021/12/17 10:07:41;;;;;;;;;38.00;33.00;;;;;11.10;67.54;103250.47;4960802;28;45323;-53
2021/12/17 10:10:06;;;;;;;;;41.50;34.50;;;;;11.12;67.56;103243.50;4956572;28;45533;-53
2021/12/17 10:12:34;;;;;;;;;43.50;35.25;;;;;11.12;67.51;103238.25;4960730;28;46936;-53
2021/12/17 10:15:12;;;;;;;;;45.75;37.00;;;;;11.15;67.95;103243.56;4960846;28;45334;-51
2021/12/17 10:18:00;;;;;;;;;40.25;33.50;;;;;11.16;67.70;103233.94;4960389;28;45352;-54
2021/12/17 10:20:27;;;;;;;;;48.50;38.75;;;;;11.18;67.58;103241.03;4960383;28;45520;-53
2021/12/17 10:22:58;;;;;;;;;44.75;35.75;;;;;11.19;67.59;103241.91;4960561;28;46224;-49
2021/12/17 10:25:23;;;;;;;;;46.00;34.50;;;;;11.17;67.42;103225.19;4963053;28;45229;-53
2021/12/17 10:27:56;;;;;;;;;35.50;33.25;;;;;11.16;67.78;103220.78;4967021;28;45232;-52
2021/12/17 10:30:22;;;;;;;;;37.50;32.50;;;;;11.15;67.78;103221.63;4946907;28;45622;-53
2021/12/17 10:32:53;;;;;;;;;47.50;34.00;;;;;11.17;67.87;103218.19;4966708;28;46120;-53
2021/12/17 10:35:21;;;;;;;;;40.75;36.25;;;;;11.16;67.77;103211.13;4965378;28;45454;-51
2021/12/17 10:37:53;;;;;;;;;42.00;35.00;;;;;11.19;67.69;103207.69;4965362;28;45228;-53
2021/12/17 10:40:20;;;;;;;;;44.75;34.75;;;;;11.20;67.67;103198.94;4966512;28;45331;-51
2021/12/17 10:43:00;;;;;;;;;40.75;33.75;;;;;11.21;67.63;103206.88;4966442;28;45655;-51
2021/12/17 10:45:31;;;;;;;;;40.75;35.50;;;;;11.21;67.68;103193.72;4966556;28;45454;-53
2021/12/17 10:48:13;;;;;;;;;42.25;35.00;;;;;11.24;67.58;103192.00;4966765;28;45442;-52
2021/12/17 10:50:39;;;;;;;;;40.25;34.75;;;;;11.24;67.59;103190.25;4966453;28;45336;-49
2021/12/17 10:53:07;;;;;;;;;28.75;27.00;;;;;11.26;67.83;103187.66;4949199;28;47050;-51
2021/12/17 10:55:33;;;;;;;;;38.75;32.75;;;;;11.27;67.55;103177.19;4966699;28;45350;-48
2021/12/17 10:58:02;;;;;;;;;35.75;31.50;;;;;11.27;67.60;103178.91;4966513;28;45761;-50
2021/12/17 11:00:27;;;;;;;;;32.25;29.00;;;;;11.25;67.69;103172.72;4966457;28;45382;-54
2021/12/17 11:02:54;;;;;;;;;29.50;28.25;;;;;11.26;67.59;103178.03;4966386;28;46011;-52
2021/12/17 11:05:21;;;;;;;;;35.00;31.25;;;;;11.27;67.55;103178.91;4966510;28;45803;-52
2021/12/17 11:07:48;;;;;;;;;32.00;29.25;;;;;11.27;67.70;103173.63;4966520;28;45632;-51
2021/12/17 11:10:16;;;;;;;;;31.00;27.75;;;;;11.29;67.45;103171.94;4962347;28;45458;-53
2021/12/17 11:12:45;;;;;;;;;29.75;23.25;;;;;11.29;67.57;103172.81;4966217;28;47543;-52
2021/12/17 11:15:21;;;;;;;;;31.50;28.25;;;;;11.27;67.51;103164.00;4966288;28;45366;-52
2021/12/17 11:17:58;;;;;;;;;39.75;32.75;;;;;11.29;67.64;103151.75;4961370;28;45401;-52
2021/12/17 11:20:39;;;;;;;;;38.75;34.00;;;;;11.30;67.55;103145.63;4966073;28;45245;-52
2021/12/17 11:23:08;;;;;;;;;38.00;30.25;;;;;11.33;67.50;103132.56;4948817;28;46314;-48
2021/12/17 11:25:36;;;;;;;;;39.00;34.00;;;;;11.34;67.48;103136.94;4966121;28;45225;-52
2021/12/17 11:28:01;;;;;;;;;36.75;32.00;;;;;11.34;67.41;103136.06;4942368;28;45505;-51
2021/12/17 11:30:30;;;;;;;;;27.75;22.25;;;;;11.36;67.51;103127.34;4948434;28;45339;-53
2021/12/17 11:33:01;;;;;;;;;33.50;28.25;;;;;11.40;67.48;103132.69;4966426;28;46196;-50
2021/12/17 11:35:29;;;;;;;;;33.00;29.75;;;;;11.41;67.43;103134.44;4965639;28;45351;-51
2021/12/17 11:38:01;;;;;;;;;28.50;26.00;;;;;11.44;67.49;103135.38;4962400;28;45348;-50
2021/12/17 11:40:33;;;;;;;;;29.50;24.75;;;;;11.44;67.21;103131.88;4944952;28;45398;-53
2021/12/17 11:43:15;;;;;;;;;27.75;25.50;;;;;11.49;67.41;103130.22;4946791;28;46365;-48
2021/12/17 11:45:43;;;;;;;;;31.50;25.25;;;;;11.50;67.11;103129.38;4943740;28;45232;-53
2021/12/17 11:48:19;;;;;;;;;27.25;21.50;;;;;11.51;67.30;103132.03;4943772;28;45256;-51
2021/12/17 11:51:16;;;;;;;;;25.50;24.50;;;;;11.54;67.34;103136.47;4942309;28;45439;-52
2021/12/17 11:54:05;;;;;;;;;29.25;26.75;;;;;11.57;67.30;103133.00;4951055;28;46242;-52
2021/12/17 11:56:38;;;;;;;;;33.50;27.50;;;;;11.57;67.23;103125.97;4932589;28;45273;-52
2021/12/17 11:59:04;;;;;;;;;27.25;23.50;;;;;11.58;67.21;103116.34;4945580;28;45355;-52
2021/12/17 12:01:49;;;;;;;;;21.50;21.50;;;;;11.61;67.07;103126.94;4943742;28;45433;-53
2021/12/17 12:04:39;;;;;;;;;26.00;23.75;;;;;11.62;66.83;103127.00;4943263;28;46189;-52
2021/12/17 12:07:23;;;;;;;;;25.75;23.25;;;;;11.63;66.92;103126.09;4943149;28;45656;-52
2021/12/17 12:09:59;;;;;;;;;36.75;34.00;;;;;11.66;67.02;103120.00;4950733;28;45216;-53
2021/12/17 12:12:24;;;;;;;;;28.50;25.25;;;;;11.69;67.11;103120.09;4942508;28;45506;-52
2021/12/17 12:14:50;;;;;;;;;30.50;24.75;;;;;11.72;66.90;103109.59;4943413;28;47064;-53
2021/12/17 12:17:54;;;;;;;;;32.75;27.00;;;;;11.75;66.78;103106.13;4942752;28;45399;-49
2021/12/17 12:20:50;;;;;;;;;27.50;27.00;;;;;11.76;66.72;103100.91;4943064;28;45401;-53
2021/12/17 12:23:22;;;;;;;;;28.25;28.25;;;;;11.79;66.82;103092.19;4943044;28;45561;-51
2021/12/17 12:26:07;;;;;;;;;26.00;24.25;;;;;11.83;66.61;103091.38;4948623;28;45283;-48
2021/12/17 12:28:44;;;;;;;;;29.50;24.75;;;;;11.86;66.80;103092.31;4942640;28;45333;-51
2021/12/17 12:31:11;;;;;;;;;30.25;26.50;;;;;11.86;67.00;103086.13;4950642;28;45462;-50
2021/12/17 12:34:00;;;;;;;;;23.50;21.00;;;;;11.93;66.81;103095.94;4955713;28;45338;-50
2021/12/17 12:36:46;;;;;;;;;27.25;24.75;;;;;11.96;66.47;103088.13;4949536;28;45494;-54
2021/12/17 12:39:23;;;;;;;;;28.00;24.25;;;;;11.96;66.83;103082.84;4950426;28;45331;-53
2021/12/17 12:41:55;;;;;;;;;26.00;22.00;;;;;12.00;66.79;103068.88;4959542;28;45460;-49
2021/12/17 12:44:41;;;;;;;;;26.75;26.00;;;;;12.02;66.76;103069.78;4945611;28;45506;-52
2021/12/17 12:47:08;;;;;;;;;28.25;25.50;;;;;12.07;66.65;103069.84;4942368;28;46342;-51
2021/12/17 12:50:02;;;;;;;;;24.50;22.75;;;;;12.14;66.50;103070.84;4942435;28;45323;-52
2021/12/17 12:52:30;;;;;;;;;30.75;27.00;;;;;12.22;66.54;103069.22;4941224;28;45358;-52
2021/12/17 12:55:14;;;;;;;;;29.50;26.75;;;;;12.30;66.50;103064.06;4942311;28;45336;-53
2021/12/17 12:57:58;;;;;;;;;27.75;24.75;;;;;12.42;66.48;103058.09;4942410;28;45309;-51
2021/12/17 13:00:27;;;;;;;;;27.00;26.00;;;;;12.52;66.47;103055.59;4942552;28;45222;-49
2021/12/17 13:02:59;;;;;;;;;26.75;21.50;;;;;12.65;66.23;103050.50;4942488;28;45368;-50
2021/12/17 13:05:25;;;;;;;;;25.75;24.75;;;;;12.81;66.55;103049.84;4942294;28;45501;-52
2021/12/17 13:08:04;;;;;;;;;34.00;26.50;;;;;12.99;66.38;103053.59;4942153;28;45392;-52
2021/12/17 13:10:31;;;;;;;;;28.00;26.00;;;;;13.14;66.60;103052.91;4951341;28;45374;-51
2021/12/17 13:13:03;;;;;;;;;32.50;26.25;;;;;13.28;66.39;103050.41;4936018;28;45314;-53
2021/12/17 13:15:40;;;;;;;;;26.50;25.00;;;;;13.41;66.62;103055.00;4922833;28;45253;-52
2021/12/17 13:23:31;;;;;;;;;24.50;23.00;;;;;13.71;66.80;103066.75;4923010;28;45334;-52
2021/12/17 13:26:07;;;;;;;;;30.00;28.00;;;;;13.79;66.16;103050.97;4923047;28;45382;-52
2021/12/17 13:28:51;;;;;;;;;27.75;25.75;;;;;13.85;66.58;103047.47;4922743;28;46209;-52
2021/12/17 13:31:44;;;;;;;;;34.50;27.25;;;;;13.88;66.27;103045.75;4935823;28;45439;-52
2021/12/17 13:34:17;;;;;;;;;29.50;24.00;;;;;13.91;65.99;103053.72;4929462;28;45461;-53
2021/12/17 13:36:51;;;;;;;;;28.50;25.25;;;;;13.94;66.01;103053.75;4945604;28;45292;-53
2021/12/17 13:39:17;;;;;;;;;29.00;26.25;;;;;13.96;66.05;103053.75;4915908;28;47256;-53
2021/12/17 13:41:45;;;;;;;;;25.25;21.50;;;;;13.96;66.33;103052.00;4922635;28;45504;-52
2021/12/17 13:44:37;;;;;;;;;30.00;23.50;;;;;14.00;65.83;103060.84;4909266;28;45451;-53
2021/12/17 13:47:29;;;;;;;;;24.50;23.50;;;;;14.00;66.18;103062.59;4905040;28;45369;-53
2021/12/17 13:50:29;;;;;;;;;26.50;21.50;;;;;13.99;65.86;103056.44;4922278;28;45375;-53
2021/12/17 13:53:04;;;;;;;;;25.25;23.00;;;;;13.97;65.82;103053.78;4922659;28;45288;-52
2021/12/17 13:55:35;;;;;;;;;25.25;24.75;;;;;13.93;65.76;103057.25;4922700;28;45395;-48
2021/12/17 13:58:06;;;;;;;;;25.25;21.50;;;;;13.91;65.72;103056.38;4922459;28;45220;-50
2021/12/17 14:00:39;;;;;;;;;26.75;23.00;;;;;13.88;65.21;103053.69;4921424;28;46159;-49
2021/12/17 14:03:05;;;;;;;;;29.00;23.25;;;;;13.91;65.08;103043.16;4922449;28;45648;-52
2021/12/17 14:05:41;;;;;;;;;25.75;23.50;;;;;13.95;64.92;103039.66;4922528;28;45288;-51
2021/12/17 14:08:17;;;;;;;;;24.50;22.25;;;;;14.00;65.12;103037.06;4929160;28;45403;-50
2021/12/17 14:10:43;;;;;;;;;22.75;21.25;;;;;14.08;64.78;103034.47;4945720;28;47335;-50
2021/12/17 14:13:34;;;;;;;;;22.75;20.00;;;;;14.15;64.77;103044.22;4933132;28;45260;-51
2021/12/17 14:16:02;;;;;;;;;18.25;17.25;;;;;14.25;64.51;103024.91;4937100;28;45360;-50